Rechercher aéroport 
image banner adimage banner adimage banner ad
image banner ad

93CA - Fountain Valley Rgnl Hospital

Situé à Fountain Valley, United States

ICAO - 93CA, IATA -

Données fournies par Airmate  

Information générale

Coordonnées: N33°42'50" W117°56'9"
Élévation : 38 feet MSL.
Variation magnétique : 14° East
Voir autres Aéroports à California

Données opérationnelles

Special qualification required
Heure actuelle UTC:
Heure actuelle locale:
METAR: KSNA 300153Z 22005KT 10SM FEW055 FEW170 BKN250 26/16 A2985 RMK AO2 SLP106 T02610156
TAF: KSNA 292325Z 3000/3024 22010KT P6SM FEW010 SCT200 FM300200 VRB05KT P6SM FEW200 TEMPO 3009/3011 BKN010 FM301100 VRB04KT 5SM BR BKN009 FM301500 VRB04KT P6SM SCT010 SCT150 FM302000 22008KT P6SM FEW010 SCT150
Voir NOTAMs / SUP AIP / TFR affectant cet aéroport [VIEW]
Fréquences de communication: [VIEW]

Pistes:

Coordonnées de l'aéroport

Adresse: Fountain Valley United States

Vue satellite de 93CA